Time;durP1;ratioP1;P1;durP2;ratioP2;P2;SDS_P1;SDS_P2;PMS_P1;PMS_P2;Temp;Humidity;BMP_temperature;BMP_pressure;BME280_temperature;BME280_humidity;BME280_pressure;Samples;Min_cycle;Max_cycle;Signal;HPM_P1;HPM_P2
2023/10/23 00:02:18;;;;;;;;;;;14.80;69.20;;;;;;5094445;28;19924;-72
2023/10/23 00:04:43;;;;;;;;;;;14.80;69.20;;;;;;5094209;28;19938;-72
2023/10/23 00:07:09;;;;;;;;;;;14.80;69.20;;;;;;5112609;28;19920;-73
2023/10/23 00:09:35;;;;;;;;;;;14.80;69.20;;;;;;5094583;28;19920;-72
2023/10/23 00:12:00;;;;;;;;;;;14.70;69.20;;;;;;5094677;28;20307;-72
2023/10/23 00:14:26;;;;;;;;;;;14.80;69.20;;;;;;5128285;28;19919;-72
2023/10/23 00:16:52;;;;;;;;;;;14.70;69.20;;;;;;5094133;28;19919;-72
2023/10/23 00:19:17;;;;;;;;;;;14.70;69.10;;;;;;5094191;28;19919;-73
2023/10/23 00:21:44;;;;;;;;;;;14.70;69.20;;;;;;5094363;28;19931;-72
2023/10/23 00:24:10;;;;;;;;;;;14.70;69.20;;;;;;5094153;28;19926;-72
2023/10/23 00:26:35;;;;;;;;;;;14.70;69.20;;;;;;5094352;28;19924;-72
2023/10/23 00:29:01;;;;;;;;;;;14.70;69.20;;;;;;5094231;28;19919;-72
2023/10/23 00:31:27;;;;;;;;;;;14.70;69.10;;;;;;5094267;28;19926;-73
2023/10/23 00:33:53;;;;;;;;;;;14.70;69.10;;;;;;5094286;28;19927;-72
2023/10/23 00:36:19;;;;;;;;;;;14.70;69.10;;;;;;5094426;28;19920;-72
2023/10/23 00:38:44;;;;;;;;;;;14.70;69.20;;;;;;5094003;28;20341;-72
2023/10/23 00:41:10;;;;;;;;;;;14.70;69.10;;;;;;5093626;28;19963;-72
2023/10/23 00:43:35;;;;;;;;;;;14.70;69.10;;;;;;5112253;28;19923;-72
2023/10/23 00:46:04;;;;;;;;;;;14.70;69.10;;;;;;5094230;28;19920;-72
2023/10/23 00:48:30;;;;;;;;;;;14.70;69.10;;;;;;5112324;28;19931;-72
2023/10/23 00:50:57;;;;;;;;;;;14.70;69.10;;;;;;5097883;28;19919;-72
2023/10/23 00:53:25;;;;;;;;;;;14.70;69.10;;;;;;5097931;28;19919;-72
2023/10/23 00:55:52;;;;;;;;;;;14.70;69.10;;;;;;5115912;28;19919;-72
2023/10/23 00:58:18;;;;;;;;;;;14.70;69.00;;;;;;5115833;28;19924;-72
2023/10/23 01:00:44;;;;;;;;;;;14.70;69.10;;;;;;5097710;28;20418;-72
2023/10/23 01:03:10;;;;;;;;;;;14.70;69.10;;;;;;5115865;28;19926;-72
2023/10/23 01:05:36;;;;;;;;;;;14.70;69.10;;;;;;5097639;28;19924;-72
2023/10/23 01:08:02;;;;;;;;;;;14.70;69.00;;;;;;5097689;28;19959;-72
2023/10/23 01:10:27;;;;;;;;;;;14.70;69.00;;;;;;5115564;28;19966;-72
2023/10/23 01:12:54;;;;;;;;;;;14.70;69.00;;;;;;5115950;28;19920;-72
2023/10/23 01:15:20;;;;;;;;;;;14.60;69.00;;;;;;5097366;28;19920;-72
2023/10/23 01:17:45;;;;;;;;;;;14.70;69.00;;;;;;5097008;28;20306;-72
2023/10/23 01:20:12;;;;;;;;;;;14.70;69.00;;;;;;5115380;28;19926;-72
2023/10/23 01:22:37;;;;;;;;;;;14.60;68.90;;;;;;5096987;28;19920;-72
2023/10/23 01:25:09;;;;;;;;;;;14.60;68.90;;;;;;5097306;28;19935;-71
2023/10/23 01:27:35;;;;;;;;;;;14.60;68.90;;;;;;5097215;28;20434;-72
2023/10/23 01:30:01;;;;;;;;;;;14.60;68.80;;;;;;5115188;28;20014;-72
2023/10/23 01:32:26;;;;;;;;;;;14.60;68.80;;;;;;5097037;28;20037;-72
2023/10/23 01:34:52;;;;;;;;;;;14.60;68.80;;;;;;5096848;28;20371;-72
2023/10/23 01:37:17;;;;;;;;;;;14.60;68.70;;;;;;5114980;28;19920;-72
2023/10/23 01:39:43;;;;;;;;;;;14.60;68.70;;;;;;5096804;28;19926;-71
2023/10/23 01:42:08;;;;;;;;;;;14.60;68.70;;;;;;5130546;27;19923;-72
2023/10/23 01:44:33;;;;;;;;;;;14.60;68.70;;;;;;5096883;28;20436;-72
2023/10/23 01:46:59;;;;;;;;;;;14.60;68.70;;;;;;5114700;28;20117;-72
2023/10/23 01:49:25;;;;;;;;;;;14.60;68.70;;;;;;5096844;28;20318;-72
2023/10/23 01:51:50;;;;;;;;;;;14.60;68.70;;;;;;5096536;28;19969;-72
2023/10/23 01:54:16;;;;;;;;;;;14.60;68.70;;;;;;5096352;28;19920;-72
2023/10/23 01:56:41;;;;;;;;;;;14.60;68.70;;;;;;5114691;28;19920;-72
2023/10/23 01:59:07;;;;;;;;;;;14.60;69.40;;;;;;5114988;28;19939;-72
2023/10/23 02:01:36;;;;;;;;;;;14.60;68.70;;;;;;5096427;28;19924;-73
2023/10/23 02:04:01;;;;;;;;;;;14.50;68.60;;;;;;5114655;28;19923;-72
2023/10/23 02:06:27;;;;;;;;;;;14.50;68.60;;;;;;5130579;27;20413;-72
2023/10/23 02:08:52;;;;;;;;;;;14.50;68.60;;;;;;5096155;28;19920;-72
2023/10/23 02:11:18;;;;;;;;;;;14.50;68.60;;;;;;5130484;27;19924;-72
2023/10/23 02:13:43;;;;;;;;;;;14.50;68.50;;;;;;5096029;28;19924;-72
2023/10/23 02:16:09;;;;;;;;;;;14.60;68.60;;;;;;5096305;28;19919;-73
2023/10/23 02:18:34;;;;;;;;;;;14.50;68.50;;;;;;5114023;28;19920;-74
2023/10/23 02:21:00;;;;;;;;;;;14.50;68.50;;;;;;5096012;28;19943;-73
2023/10/23 02:23:25;;;;;;;;;;;14.50;68.40;;;;;;5095683;28;19924;-73
2023/10/23 02:25:51;;;;;;;;;;;14.50;68.50;;;;;;5096142;28;19920;-72
2023/10/23 02:28:16;;;;;;;;;;;14.50;68.50;;;;;;5095988;28;19923;-72
2023/10/23 02:30:42;;;;;;;;;;;14.50;68.50;;;;;;5096052;28;19919;-73
2023/10/23 02:33:07;;;;;;;;;;;14.50;68.50;;;;;;5113809;28;19973;-72
2023/10/23 02:35:34;;;;;;;;;;;14.50;68.50;;;;;;5095624;28;19927;-73
2023/10/23 02:37:59;;;;;;;;;;;14.50;68.50;;;;;;5114063;28;19923;-72
2023/10/23 02:40:25;;;;;;;;;;;14.50;68.50;;;;;;5095812;28;19926;-73
2023/10/23 02:42:50;;;;;;;;;;;14.50;68.50;;;;;;5095197;28;20019;-72
2023/10/23 02:45:16;;;;;;;;;;;14.50;68.50;;;;;;5113676;28;19919;-72
2023/10/23 02:47:41;;;;;;;;;;;14.50;68.50;;;;;;5095441;28;19920;-73
2023/10/23 02:50:07;;;;;;;;;;;14.40;68.40;;;;;;5095595;28;19971;-72
2023/10/23 02:52:33;;;;;;;;;;;14.40;68.40;;;;;;5113668;28;20367;-72
2023/10/23 02:54:58;;;;;;;;;;;14.40;68.40;;;;;;5095509;28;19920;-72
2023/10/23 02:57:24;;;;;;;;;;;14.40;68.40;;;;;;5095508;28;19923;-73
2023/10/23 02:59:49;;;;;;;;;;;14.40;68.40;;;;;;5095395;28;20375;-72
2023/10/23 03:02:16;;;;;;;;;;;14.40;68.40;;;;;;5113395;28;20000;-73
2023/10/23 03:04:42;;;;;;;;;;;14.40;68.40;;;;;;5095289;28;19985;-72
2023/10/23 03:07:08;;;;;;;;;;;14.40;68.40;;;;;;5095087;28;20390;-72
2023/10/23 03:09:33;;;;;;;;;;;14.40;68.40;;;;;;5095345;28;19930;-72
2023/10/23 03:11:59;;;;;;;;;;;14.40;68.40;;;;;;5112708;28;20387;-72
2023/10/23 03:14:24;;;;;;;;;;;14.40;68.40;;;;;;5095282;28;19969;-73
2023/10/23 03:16:50;;;;;;;;;;;14.40;68.40;;;;;;5095016;28;19919;-73
2023/10/23 03:19:15;;;;;;;;;;;14.40;68.40;;;;;;5113096;28;19919;-73
2023/10/23 03:21:41;;;;;;;;;;;14.40;68.40;;;;;;5094716;28;19924;-73
2023/10/23 03:24:07;;;;;;;;;;;14.40;68.40;;;;;;5094828;28;19926;-72
2023/10/23 03:26:32;;;;;;;;;;;14.40;68.40;;;;;;5095146;28;19920;-72
2023/10/23 03:28:58;;;;;;;;;;;14.30;68.30;;;;;;5094720;28;19919;-72
2023/10/23 03:31:23;;;;;;;;;;;14.30;68.30;;;;;;5094577;28;19949;-73
2023/10/23 03:33:49;;;;;;;;;;;14.30;68.30;;;;;;5094737;28;20153;-72
2023/10/23 03:36:15;;;;;;;;;;;14.30;68.30;;;;;;5094769;28;19984;-72
2023/10/23 03:38:41;;;;;;;;;;;14.30;68.30;;;;;;5094718;28;20204;-72
2023/10/23 03:41:07;;;;;;;;;;;14.30;68.30;;;;;;5094304;28;19924;-72
2023/10/23 03:43:32;;;;;;;;;;;14.30;68.30;;;;;;5112992;28;19931;-72
2023/10/23 03:46:02;;;;;;;;;;;14.30;68.30;;;;;;5112808;28;19920;-72
2023/10/23 03:48:27;;;;;;;;;;;14.30;68.30;;;;;;5094776;28;19936;-72
2023/10/23 03:50:53;;;;;;;;;;;14.30;68.30;;;;;;5094794;28;19927;-72
2023/10/23 03:53:18;;;;;;;;;;;14.30;68.20;;;;;;5128552;28;19920;-72
2023/10/23 03:55:44;;;;;;;;;;;14.30;68.30;;;;;;5112887;28;19945;-72
2023/10/23 03:58:09;;;;;;;;;;;14.30;68.20;;;;;;5128820;28;19945;-72
2023/10/23 04:00:35;;;;;;;;;;;14.30;68.30;;;;;;5094817;28;20421;-72
2023/10/23 04:03:00;;;;;;;;;;;14.30;68.20;;;;;;5094323;28;19919;-72
2023/10/23 04:05:26;;;;;;;;;;;14.30;68.20;;;;;;5094265;28;19924;-72
2023/10/23 04:07:51;;;;;;;;;;;14.30;68.20;;;;;;5112528;28;19939;-72
2023/10/23 04:10:17;;;;;;;;;;;14.30;68.20;;;;;;5112623;28;20311;-72
2023/10/23 04:12:42;;;;;;;;;;;14.30;68.20;;;;;;5094216;28;20010;-72
2023/10/23 04:15:08;;;;;;;;;;;14.30;68.20;;;;;;5128625;28;19920;-72
2023/10/23 04:17:34;;;;;;;;;;;14.30;68.20;;;;;;5094124;28;19939;-73
2023/10/23 04:19:59;;;;;;;;;;;14.30;68.20;;;;;;5112578;28;20382;-73
2023/10/23 04:22:25;;;;;;;;;;;14.30;68.20;;;;;;5094220;28;19920;-73
2023/10/23 04:24:53;;;;;;;;;;;14.30;68.20;;;;;;5115064;28;20268;-72
2023/10/23 04:27:19;;;;;;;;;;;14.20;68.10;;;;;;5098302;28;20061;-72
2023/10/23 04:29:45;;;;;;;;;;;14.30;68.20;;;;;;5098500;28;19926;-73
2023/10/23 04:32:10;;;;;;;;;;;14.30;68.20;;;;;;5098055;28;19920;-72
2023/10/23 04:34:35;;;;;;;;;;;14.30;68.10;;;;;;5097945;28;19923;-72
2023/10/23 04:37:01;;;;;;;;;;;14.30;68.20;;;;;;5116224;28;19966;-72
2023/10/23 04:39:29;;;;;;;;;;;14.20;68.10;;;;;;5097862;28;19919;-72
2023/10/23 04:41:55;;;;;;;;;;;14.20;68.10;;;;;;5097528;28;19924;-72
2023/10/23 04:44:20;;;;;;;;;;;14.20;68.10;;;;;;5116129;28;20321;-72
2023/10/23 04:46:46;;;;;;;;;;;14.20;68.10;;;;;;5098013;28;19928;-72
2023/10/23 04:49:11;;;;;;;;;;;14.20;68.10;;;;;;5115940;28;19980;-72
2023/10/23 04:51:37;;;;;;;;;;;14.20;68.10;;;;;;5097677;28;19924;-72
2023/10/23 04:54:02;;;;;;;;;;;14.20;68.10;;;;;;5097841;28;20104;-71
2023/10/23 04:56:28;;;;;;;;;;;14.20;68.10;;;;;;5116000;28;20003;-72
2023/10/23 04:58:53;;;;;;;;;;;14.20;68.00;;;;;;5116151;28;19924;-72
2023/10/23 05:01:19;;;;;;;;;;;14.20;68.10;;;;;;5097752;28;19920;-72
2023/10/23 05:03:44;;;;;;;;;;;14.20;68.10;;;;;;5097592;28;20294;-72
2023/10/23 05:06:10;;;;;;;;;;;14.30;68.10;;;;;;5097662;28;19927;-72
2023/10/23 05:08:36;;;;;;;;;;;14.20;68.00;;;;;;5115504;28;20255;-72
2023/10/23 05:11:06;;;;;;;;;;;14.20;67.90;;;;;;5097285;28;20367;-71
2023/10/23 05:13:31;;;;;;;;;;;14.20;67.90;;;;;;5097320;28;20044;-72
2023/10/23 05:16:05;;;;;;;;;;;14.20;67.90;;;;;;5097019;28;20002;-71
2023/10/23 05:18:31;;;;;;;;;;;14.20;67.90;;;;;;5097491;28;20282;-73
2023/10/23 05:20:56;;;;;;;;;;;14.20;67.90;;;;;;5097490;28;19920;-73
2023/10/23 05:23:22;;;;;;;;;;;14.20;67.90;;;;;;5096941;28;19990;-72
2023/10/23 05:25:48;;;;;;;;;;;14.20;67.90;;;;;;5097286;28;19926;-72
2023/10/23 05:28:13;;;;;;;;;;;14.20;67.90;;;;;;5115388;28;20197;-72
2023/10/23 05:30:39;;;;;;;;;;;14.20;67.90;;;;;;5097230;28;20367;-72
2023/10/23 05:33:04;;;;;;;;;;;14.10;67.90;;;;;;5097144;28;20382;-72
2023/10/23 05:35:30;;;;;;;;;;;14.20;67.90;;;;;;5130927;27;19973;-71
2023/10/23 05:37:55;;;;;;;;;;;14.20;67.90;;;;;;5115040;28;19927;-71
2023/10/23 05:40:21;;;;;;;;;;;14.10;67.90;;;;;;5130746;27;19927;-72
2023/10/23 05:42:46;;;;;;;;;;;14.10;67.90;;;;;;5130653;27;19994;-72
2023/10/23 05:45:12;;;;;;;;;;;14.10;67.90;;;;;;5114922;28;19943;-72
2023/10/23 05:47:37;;;;;;;;;;;14.10;67.90;;;;;;5096653;28;19967;-72
2023/10/23 05:50:04;;;;;;;;;;;14.10;67.80;;;;;;5096834;28;19927;-72
2023/10/23 05:52:30;;;;;;;;;;;14.10;67.90;;;;;;5096403;28;19927;-72
2023/10/23 05:54:55;;;;;;;;;;;14.10;67.80;;;;;;5096450;28;19924;-72
2023/10/23 05:57:21;;;;;;;;;;;14.10;67.80;;;;;;5130826;27;20032;-72
2023/10/23 05:59:46;;;;;;;;;;;14.10;67.90;;;;;;5130447;27;20401;-72
2023/10/23 06:02:12;;;;;;;;;;;14.10;67.80;;;;;;5096372;28;19977;-72
2023/10/23 06:04:37;;;;;;;;;;;14.10;67.80;;;;;;5114502;28;19973;-72
2023/10/23 06:07:03;;;;;;;;;;;14.10;67.90;;;;;;5114440;28;20302;-72
2023/10/23 06:09:28;;;;;;;;;;;14.10;67.80;;;;;;5096010;28;19920;-72
2023/10/23 06:11:54;;;;;;;;;;;14.10;67.80;;;;;;5130415;27;19923;-72
2023/10/23 06:14:19;;;;;;;;;;;14.10;67.80;;;;;;5096032;28;19919;-72
2023/10/23 06:16:45;;;;;;;;;;;14.10;67.70;;;;;;5095848;28;19986;-72
2023/10/23 06:19:10;;;;;;;;;;;14.10;67.80;;;;;;5096206;28;19924;-73
2023/10/23 06:21:36;;;;;;;;;;;14.10;67.70;;;;;;5095758;28;20027;-72
2023/10/23 06:24:03;;;;;;;;;;;14.10;67.70;;;;;;5096191;28;19923;-72
2023/10/23 06:26:29;;;;;;;;;;;14.10;67.60;;;;;;5096040;28;19920;-72
2023/10/23 06:28:55;;;;;;;;;;;14.10;67.60;;;;;;5096052;28;19919;-72
2023/10/23 06:31:21;;;;;;;;;;;14.00;67.50;;;;;;5095747;28;19920;-72
2023/10/23 06:33:47;;;;;;;;;;;14.10;67.60;;;;;;5095811;28;19924;-72
2023/10/23 06:36:12;;;;;;;;;;;14.10;67.60;;;;;;5096020;28;19927;-72
2023/10/23 06:38:38;;;;;;;;;;;14.10;67.60;;;;;;5095816;28;20371;-72
2023/10/23 06:41:05;;;;;;;;;;;14.10;67.60;;;;;;5095495;28;20275;-71
2023/10/23 06:43:31;;;;;;;;;;;14.10;67.50;;;;;;5095385;28;19930;-72
2023/10/23 06:45:56;;;;;;;;;;;14.10;67.50;;;;;;5095763;28;19920;-72
2023/10/23 06:48:22;;;;;;;;;;;14.10;67.40;;;;;;5095323;28;19919;-72
2023/10/23 06:50:47;;;;;;;;;;;14.10;67.50;;;;;;5095629;28;19970;-71
2023/10/23 06:53:14;;;;;;;;;;;14.10;67.40;;;;;;5095293;28;19919;-72
2023/10/23 06:55:55;;;;;;;;;;;14.00;67.40;;;;;;5095564;28;19924;-71
2023/10/23 06:58:21;;;;;;;;;;;14.00;67.30;;;;;;5095095;28;19920;-72
2023/10/23 07:00:46;;;;;;;;;;;14.00;67.30;;;;;;5095173;28;19930;-71
2023/10/23 07:03:13;;;;;;;;;;;14.00;67.30;;;;;;5095102;28;19924;-72
2023/10/23 07:05:39;;;;;;;;;;;14.10;67.40;;;;;;5095481;28;19926;-72
2023/10/23 07:08:04;;;;;;;;;;;14.00;67.30;;;;;;5095503;28;20272;-72
2023/10/23 07:10:32;;;;;;;;;;;14.00;67.30;;;;;;5094961;28;19927;-72
2023/10/23 07:12:57;;;;;;;;;;;14.00;67.30;;;;;;5094971;28;19919;-72
2023/10/23 07:15:23;;;;;;;;;;;14.00;67.30;;;;;;5095316;28;20290;-72
2023/10/23 07:17:49;;;;;;;;;;;14.00;67.30;;;;;;5113253;28;19919;-72
2023/10/23 07:20:17;;;;;;;;;;;14.00;67.30;;;;;;5095223;28;19985;-72
2023/10/23 07:22:42;;;;;;;;;;;14.00;67.20;;;;;;5113096;28;19947;-72
2023/10/23 07:25:09;;;;;;;;;;;14.00;68.00;;;;;;5112978;28;19920;-72
2023/10/23 07:27:35;;;;;;;;;;;14.00;67.20;;;;;;5113217;28;20362;-72
2023/10/23 07:30:01;;;;;;;;;;;14.00;67.20;;;;;;5095001;28;19946;-72
2023/10/23 07:32:26;;;;;;;;;;;14.00;67.90;;;;;;5094862;28;19920;-71
2023/10/23 07:34:52;;;;;;;;;;;14.00;67.20;;;;;;5094949;28;19920;-72
2023/10/23 07:37:18;;;;;;;;;;;14.00;67.20;;;;;;5095043;28;19920;-72
2023/10/23 07:39:47;;;;;;;;;;;14.00;67.20;;;;;;5094508;28;20370;-72
2023/10/23 07:42:14;;;;;;;;;;;14.00;67.20;;;;;;5112794;28;19924;-72
2023/10/23 07:44:39;;;;;;;;;;;13.90;67.10;;;;;;5113102;28;20283;-71
2023/10/23 07:47:05;;;;;;;;;;;13.90;67.10;;;;;;5094646;28;19920;-72
2023/10/23 07:49:30;;;;;;;;;;;13.90;67.10;;;;;;5128671;28;19926;-72
2023/10/23 07:51:56;;;;;;;;;;;13.90;67.10;;;;;;5128921;28;19974;-72
2023/10/23 07:54:21;;;;;;;;;;;13.90;67.10;;;;;;5113164;28;19920;-72
2023/10/23 07:56:47;;;;;;;;;;;13.90;67.10;;;;;;5094542;28;20406;-72
2023/10/23 07:59:13;;;;;;;;;;;13.90;67.10;;;;;;5115775;28;19962;-71
2023/10/23 08:01:39;;;;;;;;;;;14.00;67.20;;;;;;5098895;28;19923;-71
2023/10/23 08:04:04;;;;;;;;;;;13.90;67.10;;;;;;5132711;27;19927;-71
2023/10/23 08:06:30;;;;;;;;;;;13.90;67.10;;;;;;5132693;27;19919;-72
2023/10/23 08:08:56;;;;;;;;;;;13.90;67.10;;;;;;5098543;28;19927;-72
2023/10/23 08:11:22;;;;;;;;;;;13.90;67.10;;;;;;5098340;28;19973;-72
2023/10/23 08:13:47;;;;;;;;;;;14.00;67.20;;;;;;5098735;28;19924;-72
2023/10/23 08:16:13;;;;;;;;;;;14.00;67.20;;;;;;5098791;28;20558;-72
2023/10/23 08:18:40;;;;;;;;;;;14.00;67.10;;;;;;5098533;28;19967;-72
2023/10/23 08:21:07;;;;;;;;;;;14.00;67.10;;;;;;5116548;28;19927;-72
2023/10/23 08:23:33;;;;;;;;;;;14.00;67.20;;;;;;5098099;28;19924;-72
2023/10/23 08:25:58;;;;;;;;;;;14.00;67.10;;;;;;5098122;28;19926;-72
2023/10/23 08:28:24;;;;;;;;;;;14.00;67.10;;;;;;5098118;28;19919;-71
2023/10/23 08:30:49;;;;;;;;;;;14.00;67.10;;;;;;5098378;28;19934;-72
2023/10/23 08:33:15;;;;;;;;;;;14.00;67.10;;;;;;5116384;28;19920;-73
2023/10/23 08:35:41;;;;;;;;;;;14.00;67.10;;;;;;5098315;28;19927;-72
2023/10/23 08:38:06;;;;;;;;;;;14.00;67.10;;;;;;5098001;28;19920;-72
2023/10/23 08:40:32;;;;;;;;;;;14.00;67.10;;;;;;5097772;28;19926;-71
2023/10/23 08:42:57;;;;;;;;;;;14.00;67.10;;;;;;5115836;28;19934;-72
2023/10/23 08:45:23;;;;;;;;;;;14.00;67.10;;;;;;5097867;28;19962;-72
2023/10/23 08:47:48;;;;;;;;;;;14.00;67.10;;;;;;5098022;28;20004;-72
2023/10/23 08:50:14;;;;;;;;;;;14.00;67.10;;;;;;5097784;28;20440;-71
2023/10/23 08:52:45;;;;;;;;;;;14.00;67.10;;;;;;5097911;28;20041;-71
2023/10/23 08:55:13;;;;;;;;;;;14.00;67.10;;;;;;5097689;28;19920;-72
2023/10/23 08:57:41;;;;;;;;;;;14.00;67.10;;;;;;5097806;28;20333;-72
2023/10/23 09:00:07;;;;;;;;;;;14.00;67.10;;;;;;5097793;28;19943;-72
2023/10/23 09:02:33;;;;;;;;;;;14.00;67.10;;;;;;5097522;28;20370;-72
2023/10/23 09:04:58;;;;;;;;;;;14.00;67.10;;;;;;5097795;28;20123;-72
2023/10/23 09:07:24;;;;;;;;;;;14.00;67.10;;;;;;5097629;28;19946;-72
2023/10/23 09:09:49;;;;;;;;;;;14.10;67.20;;;;;;5096965;28;19919;-72
2023/10/23 09:12:35;;;;;;;;;;;14.10;67.20;;;;;;5097493;28;19920;-73
2023/10/23 09:15:11;;;;;;;;;;;14.10;67.20;;;;;;5097074;28;19920;-72
2023/10/23 09:17:37;;;;;;;;;;;14.10;67.30;;;;;;5097319;28;19924;-72
2023/10/23 09:20:19;;;;;;;;;;;14.10;67.20;;;;;;5131322;27;20370;-72
2023/10/23 09:22:48;;;;;;;;;;;14.10;67.20;;;;;;5096961;28;20360;-72
2023/10/23 09:25:14;;;;;;;;;;;14.10;67.20;;;;;;5097304;28;19971;-72
2023/10/23 09:27:40;;;;;;;;;;;14.10;67.20;;;;;;5096913;28;20371;-72
2023/10/23 09:30:06;;;;;;;;;;;14.10;67.20;;;;;;5097297;28;20010;-72
2023/10/23 09:32:31;;;;;;;;;;;14.10;67.30;;;;;;5115148;28;20407;-72
2023/10/23 09:34:57;;;;;;;;;;;14.10;67.30;;;;;;5131104;27;19919;-72
2023/10/23 09:37:24;;;;;;;;;;;14.10;67.20;;;;;;5096982;28;19920;-72
2023/10/23 09:39:50;;;;;;;;;;;14.10;67.30;;;;;;5097029;28;19943;-72
2023/10/23 09:42:18;;;;;;;;;;;14.10;67.30;;;;;;5096399;28;19931;-72
2023/10/23 09:44:45;;;;;;;;;;;14.10;67.30;;;;;;5114861;28;19927;-72
2023/10/23 09:47:11;;;;;;;;;;;14.10;67.30;;;;;;5096709;28;19920;-72
2023/10/23 09:49:39;;;;;;;;;;;14.10;67.30;;;;;;5130922;27;19965;-72
2023/10/23 09:52:07;;;;;;;;;;;14.10;67.30;;;;;;5096798;28;19969;-72
2023/10/23 09:54:34;;;;;;;;;;;14.10;67.40;;;;;;5114895;28;19920;-72
2023/10/23 09:57:03;;;;;;;;;;;14.10;67.40;;;;;;5096769;28;19920;-72
2023/10/23 09:59:33;;;;;;;;;;;14.10;67.40;;;;;;5114586;28;19926;-72
2023/10/23 10:02:00;;;;;;;;;;;14.10;67.40;;;;;;5096308;28;19974;-72
2023/10/23 10:04:33;;;;;;;;;;;14.10;67.40;;;;;;5096550;28;19923;-72
2023/10/23 10:07:04;;;;;;;;;;;14.10;67.40;;;;;;5096554;28;20310;-72
2023/10/23 10:09:30;;;;;;;;;;;14.10;67.50;;;;;;5114432;28;19920;-72
2023/10/23 10:11:56;;;;;;;;;;;14.10;67.50;;;;;;5096404;28;20450;-72
2023/10/23 10:14:24;;;;;;;;;;;14.20;67.50;;;;;;5114393;28;19919;-73
2023/10/23 10:16:50;;;;;;;;;;;14.20;67.50;;;;;;5114245;28;20454;-73
2023/10/23 10:19:16;;;;;;;;;;;14.20;67.50;;;;;;5096159;28;19919;-74
2023/10/23 10:21:50;;;;;;;;;;;14.20;67.60;;;;;;5094792;28;19963;-74
2023/10/23 10:24:16;;;;;;;;;;;14.20;67.60;;;;;;5096121;28;19920;-72
2023/10/23 10:26:41;;;;;;;;;;;14.20;67.60;;;;;;5114231;28;19927;-72
2023/10/23 10:29:08;;;;;;;;;;;14.20;67.60;;;;;;5095986;28;20359;-74
2023/10/23 10:31:53;;;;;;;;;;;14.20;67.70;;;;;;5114043;28;19969;-72
2023/10/23 10:34:20;;;;;;;;;;;14.20;67.70;;;;;;5095485;28;19977;-72
2023/10/23 10:36:45;;;;;;;;;;;14.20;67.70;;;;;;5095667;28;19927;-72
2023/10/23 10:39:11;;;;;;;;;;;14.20;67.70;;;;;;5095659;28;19924;-73
2023/10/23 10:41:36;;;;;;;;;;;14.20;67.80;;;;;;5095379;28;19931;-73
2023/10/23 10:44:07;;;;;;;;;;;14.20;67.70;;;;;;5095479;28;19976;-72
2023/10/23 10:46:33;;;;;;;;;;;14.20;67.70;;;;;;5095400;28;19920;-72
2023/10/23 10:49:03;;;;;;;;;;;14.20;67.70;;;;;;5113747;28;20032;-72
2023/10/23 10:51:29;;;;;;;;;;;14.20;67.70;;;;;;5113743;28;19919;-72
2023/10/23 10:53:56;;;;;;;;;;;14.20;67.80;;;;;;5113790;28;19927;-72
2023/10/23 10:56:22;;;;;;;;;;;14.30;67.80;;;;;;5113509;28;19920;-73
2023/10/23 10:58:47;;;;;;;;;;;14.20;67.80;;;;;;5095511;28;20333;-72
2023/10/23 11:01:13;;;;;;;;;;;14.30;67.80;;;;;;5095159;28;19985;-73
2023/10/23 11:03:41;;;;;;;;;;;14.30;67.90;;;;;;5095117;28;19923;-73
2023/10/23 11:06:06;;;;;;;;;;;14.20;67.90;;;;;;5095409;28;19924;-72
2023/10/23 11:08:33;;;;;;;;;;;14.30;67.90;;;;;;5113524;28;19920;-72
2023/10/23 11:11:04;;;;;;;;;;;14.30;68.00;;;;;;5113317;28;19919;-73
2023/10/23 11:13:30;;;;;;;;;;;14.20;67.90;;;;;;5113321;28;19927;-72
2023/10/23 11:15:56;;;;;;;;;;;14.30;68.00;;;;;;5094917;28;19920;-73
2023/10/23 11:18:21;;;;;;;;;;;14.30;68.10;;;;;;5095131;28;19973;-74
2023/10/23 11:20:47;;;;;;;;;;;14.30;68.20;;;;;;5094835;28;20436;-73
2023/10/23 11:23:13;;;;;;;;;;;14.30;68.20;;;;;;5094870;28;19920;-74
2023/10/23 11:25:39;;;;;;;;;;;14.30;68.20;;;;;;5095215;28;20374;-73
2023/10/23 11:28:05;;;;;;;;;;;14.30;68.20;;;;;;5128856;27;19968;-73
2023/10/23 11:30:31;;;;;;;;;;;14.30;68.20;;;;;;5095094;28;20132;-72
2023/10/23 11:33:00;;;;;;;;;;;14.30;68.20;;;;;;5094627;28;20442;-73
2023/10/23 11:35:33;;;;;;;;;;;14.30;68.10;;;;;;5129131;27;20344;-73
2023/10/23 11:37:59;;;;;;;;;;;14.30;68.10;;;;;;5094765;28;19965;-73
2023/10/23 11:40:25;;;;;;;;;;;14.30;68.20;;;;;;5112820;28;19924;-73
2023/10/23 11:42:55;;;;;;;;;;;14.30;68.20;;;;;;5094292;28;20276;-72
2023/10/23 11:45:22;;;;;;;;;;;14.30;68.20;;;;;;5094172;28;21377;-73
2023/10/23 11:47:49;;;;;;;;;;;14.30;68.20;;;;;;5094694;28;19920;-73
2023/10/23 11:50:14;;;;;;;;;;;14.30;68.20;;;;;;5094863;28;20002;-72
2023/10/23 11:52:41;;;;;;;;;;;14.30;68.30;;;;;;5094425;28;20349;-73
2023/10/23 11:55:08;;;;;;;;;;;14.30;68.20;;;;;;5112867;28;19920;-73
2023/10/23 11:57:33;;;;;;;;;;;14.30;68.20;;;;;;5112772;28;19966;-73
2023/10/23 12:00:01;;;;;;;;;;;14.30;68.30;;;;;;5094546;28;20387;-72
2023/10/23 12:02:28;;;;;;;;;;;14.30;68.20;;;;;;5094420;28;19930;-72
2023/10/23 12:04:54;;;;;;;;;;;14.40;68.30;;;;;;5112783;28;19973;-72
2023/10/23 12:07:19;;;;;;;;;;;14.30;68.20;;;;;;5128497;28;19920;-73
2023/10/23 12:09:45;;;;;;;;;;;14.30;68.20;;;;;;5112709;28;19920;-74
2023/10/23 12:12:11;;;;;;;;;;;14.30;68.30;;;;;;5112701;28;19920;-73
2023/10/23 12:14:37;;;;;;;;;;;14.30;68.30;;;;;;5094543;28;20398;-74
2023/10/23 12:17:03;;;;;;;;;;;14.30;68.20;;;;;;5112389;28;19920;-74
2023/10/23 12:19:28;;;;;;;;;;;14.30;68.30;;;;;;5094244;28;19920;-73
2023/10/23 12:21:54;;;;;;;;;;;14.40;68.30;;;;;;5094473;28;19924;-72
2023/10/23 12:24:20;;;;;;;;;;;14.30;68.30;;;;;;5094504;28;20423;-74
2023/10/23 12:26:46;;;;;;;;;;;14.40;68.30;;;;;;5094284;28;19951;-72
2023/10/23 12:29:13;;;;;;;;;;;14.40;68.30;;;;;;5094389;28;20014;-74
2023/10/23 12:31:39;;;;;;;;;;;14.40;68.30;;;;;;5094507;28;19928;-73
2023/10/23 12:34:04;;;;;;;;;;;14.40;68.40;;;;;;5094413;28;20027;-73
2023/10/23 12:36:30;;;;;;;;;;;14.40;68.40;;;;;;5094113;28;19920;-73
2023/10/23 12:38:55;;;;;;;;;;;14.40;68.40;;;;;;5112397;28;19919;-73
2023/10/23 12:41:21;;;;;;;;;;;14.40;68.40;;;;;;5094007;28;19935;-73
2023/10/23 12:43:47;;;;;;;;;;;14.40;68.30;;;;;;5093889;28;20007;-72
2023/10/23 12:46:13;;;;;;;;;;;14.40;68.40;;;;;;5096748;28;19919;-73
2023/10/23 12:48:43;;;;;;;;;;;14.40;68.50;;;;;;5115995;28;20006;-73
2023/10/23 12:51:09;;;;;;;;;;;14.40;68.50;;;;;;5116156;28;19919;-72
2023/10/23 12:53:34;;;;;;;;;;;14.40;68.50;;;;;;5116128;28;19920;-73
2023/10/23 12:56:00;;;;;;;;;;;14.40;68.60;;;;;;5097621;28;19926;-73
2023/10/23 12:58:25;;;;;;;;;;;14.40;68.50;;;;;;5116010;28;19920;-73
2023/10/23 13:00:51;;;;;;;;;;;14.40;68.60;;;;;;5097502;28;19920;-73
2023/10/23 13:03:16;;;;;;;;;;;14.40;68.50;;;;;;5097370;28;19928;-73
2023/10/23 13:05:42;;;;;;;;;;;14.40;68.60;;;;;;5097529;28;19920;-73
2023/10/23 13:08:07;;;;;;;;;;;14.40;68.50;;;;;;5097748;28;19920;-73
2023/10/23 13:10:33;;;;;;;;;;;14.40;68.60;;;;;;5097661;28;20275;-73
2023/10/23 13:12:59;;;;;;;;;;;14.40;68.70;;;;;;5115718;28;20363;-72
2023/10/23 13:15:24;;;;;;;;;;;14.40;68.70;;;;;;5097164;28;19923;-73
2023/10/23 13:17:53;;;;;;;;;;;14.40;68.70;;;;;;5097147;28;19924;-73
2023/10/23 13:20:19;;;;;;;;;;;14.40;68.70;;;;;;5097457;28;19920;-74
2023/10/23 13:22:46;;;;;;;;;;;14.40;68.70;;;;;;5095792;28;19924;-71
2023/10/23 13:25:13;;;;;;;;;;;14.50;68.90;;;;;;5115246;28;20390;-71
2023/10/23 13:27:38;;;;;;;;;;;14.50;69.00;;;;;;5114677;28;19919;-71
2023/10/23 13:30:05;;;;;;;;;;;14.40;69.00;;;;;;5131020;27;20306;-71
2023/10/23 13:32:30;;;;;;;;;;;14.50;69.10;;;;;;5115155;28;20311;-70
2023/10/23 13:34:56;;;;;;;;;;;14.50;69.10;;;;;;5131025;27;19920;-71
2023/10/23 13:37:21;;;;;;;;;;;14.50;69.10;;;;;;5115249;28;19919;-71
2023/10/23 13:39:47;;;;;;;;;;;14.50;69.10;;;;;;5097068;28;19968;-71
2023/10/23 13:42:12;;;;;;;;;;;14.50;69.10;;;;;;5115000;28;20008;-71
2023/10/23 13:44:38;;;;;;;;;;;14.40;69.10;;;;;;5115011;28;20287;-71
2023/10/23 13:47:03;;;;;;;;;;;14.50;69.20;;;;;;5096668;28;19950;-70
2023/10/23 13:49:29;;;;;;;;;;;14.50;69.20;;;;;;5131032;27;19969;-71
2023/10/23 13:51:54;;;;;;;;;;;14.40;69.10;;;;;;5096490;28;19971;-71
2023/10/23 13:54:20;;;;;;;;;;;14.50;69.20;;;;;;5130902;27;19920;-70
2023/10/23 13:56:47;;;;;;;;;;;14.50;69.20;;;;;;5096175;28;19958;-71
2023/10/23 13:59:12;;;;;;;;;;;14.50;69.20;;;;;;5096818;28;19943;-71
2023/10/23 14:01:38;;;;;;;;;;;14.40;69.20;;;;;;5114578;28;20374;-70
2023/10/23 14:04:03;;;;;;;;;;;14.50;69.20;;;;;;5130764;27;19923;-71
2023/10/23 14:06:29;;;;;;;;;;;14.50;69.20;;;;;;5096847;28;19924;-71
2023/10/23 14:08:55;;;;;;;;;;;14.50;69.30;;;;;;5096254;28;19927;-71
2023/10/23 14:11:21;;;;;;;;;;;14.40;69.20;;;;;;5096462;28;19974;-71